Time;durP1;ratioP1;P1;durP2;ratioP2;P2;SDS_P1;SDS_P2;PMS_P1;PMS_P2;Temp;Humidity;BMP_temperature;BMP_pressure;BME280_temperature;BME280_humidity;BME280_pressure;Samples;Min_cycle;Max_cycle;Signal;HPM_P1;HPM_P2
2021/05/05 00:00:16;;;;;;;3.88;1.48;;;7.00;99.90;;;;;;5049318;28;20036;-63
2021/05/05 00:02:44;;;;;;;4.10;1.60;;;7.00;99.90;;;;;;5053211;28;20037;-63
2021/05/05 00:05:10;;;;;;;7.68;2.60;;;7.00;99.90;;;;;;5045186;28;20060;-63
2021/05/05 00:07:36;;;;;;;5.80;1.60;;;7.00;99.90;;;;;;5048230;28;20033;-63
2021/05/05 00:10:04;;;;;;;5.75;1.33;;;7.00;99.90;;;;;;5061239;28;20025;-63
2021/05/05 00:12:29;;;;;;;7.28;1.50;;;7.00;99.90;;;;;;5044699;28;20033;-62
2021/05/05 00:14:55;;;;;;;7.53;1.85;;;7.00;99.90;;;;;;5045932;28;20494;-62
2021/05/05 00:17:21;;;;;;;4.13;1.60;;;7.00;99.90;;;;;;5046538;28;20028;-63
2021/05/05 00:19:48;;;;;;;6.55;2.15;;;7.00;99.90;;;;;;5056430;28;20075;-63
2021/05/05 00:22:14;;;;;;;5.05;1.42;;;7.00;99.90;;;;;;5046718;28;20028;-63
2021/05/05 00:24:40;;;;;;;8.55;1.98;;;7.00;99.90;;;;;;5042788;28;20037;-64
2021/05/05 00:27:06;;;;;;;4.60;1.40;;;7.00;99.90;;;;;;5044546;28;20405;-63
2021/05/05 00:29:31;;;;;;;3.38;1.33;;;7.00;99.90;;;;;;5045830;28;20025;-63
2021/05/05 00:31:57;;;;;;;4.85;1.45;;;7.00;99.90;;;;;;5046965;28;20021;-64
2021/05/05 00:34:23;;;;;;;4.20;1.58;;;7.00;99.90;;;;;;5048666;28;20033;-64
2021/05/05 00:36:48;;;;;;;5.28;1.52;;;7.00;99.90;;;;;;5048808;28;20033;-64
2021/05/05 00:39:14;;;;;;;3.88;1.27;;;7.00;99.90;;;;;;5047010;28;20039;-64
2021/05/05 00:41:46;;;;;;;6.05;1.42;;;6.90;99.90;;;;;;5054554;28;20028;-63
2021/05/05 00:44:11;;;;;;;3.80;1.67;;;6.90;99.90;;;;;;5055719;28;20027;-65
2021/05/05 00:46:37;;;;;;;4.72;1.50;;;6.90;99.90;;;;;;5052604;28;20033;-63
2021/05/05 00:49:03;;;;;;;5.13;1.40;;;6.90;99.90;;;;;;5052391;28;20026;-63
2021/05/05 00:51:29;;;;;;;6.22;1.63;;;6.90;99.90;;;;;;5048853;28;20025;-62
2021/05/05 00:53:54;;;;;;;5.47;1.63;;;6.80;99.90;;;;;;5057483;28;20545;-64
2021/05/05 00:56:20;;;;;;;5.15;1.60;;;6.70;99.90;;;;;;5048175;28;20067;-64
2021/05/05 00:58:46;;;;;;;1.80;1.17;;;6.70;99.90;;;;;;4998907;28;21155;-64
2021/05/05 01:01:11;;;;;;;6.93;1.73;;;6.70;99.90;;;;;;5034910;28;20032;-63
2021/05/05 01:03:37;;;;;;;5.93;1.65;;;6.70;99.90;;;;;;5038408;28;20120;-62
2021/05/05 01:06:03;;;;;;;4.20;1.35;;;6.70;99.90;;;;;;5034137;28;20052;-64
2021/05/05 01:08:31;;;;;;;3.88;1.60;;;6.70;99.90;;;;;;5038937;28;20021;-62
2021/05/05 01:10:57;;;;;;;5.53;1.58;;;6.70;99.90;;;;;;5041426;28;20115;-64
2021/05/05 01:13:23;;;;;;;4.20;1.40;;;6.70;99.90;;;;;;5044838;28;20179;-65
2021/05/05 01:15:48;;;;;;;9.88;1.73;;;6.70;99.90;;;;;;5040271;28;20031;-63
2021/05/05 01:18:14;;;;;;;7.07;2.13;;;6.70;99.90;;;;;;5054517;28;20116;-63
2021/05/05 01:20:41;;;;;;;6.32;1.55;;;6.70;99.90;;;;;;5037041;28;20510;-64
2021/05/05 01:23:07;;;;;;;4.45;1.58;;;6.60;99.90;;;;;;5047854;28;20028;-64
2021/05/05 01:25:33;;;;;;;4.65;1.45;;;6.60;99.90;;;;;;5050999;28;20570;-64
2021/05/05 01:27:59;;;;;;;4.28;1.27;;;6.60;99.90;;;;;;5055105;28;20129;-63
2021/05/05 01:30:26;;;;;;;3.60;1.63;;;6.60;99.90;;;;;;5054716;28;20486;-62
2021/05/05 01:32:51;;;;;;;5.95;1.30;;;6.60;99.90;;;;;;5042898;28;20056;-62
2021/05/05 01:35:19;;;;;;;4.13;1.45;;;6.60;99.90;;;;;;5055324;28;20029;-64
2021/05/05 01:37:47;;;;;;;5.00;1.35;;;6.60;99.90;;;;;;5041566;28;20052;-64
2021/05/05 01:40:19;;;;;;;4.88;1.40;;;6.50;99.90;;;;;;5046660;28;20517;-64
2021/05/05 01:42:45;;;;;;;1.92;1.20;;;6.60;99.90;;;;;;5053802;28;20530;-62
2021/05/05 01:45:11;;;;;;;4.07;1.38;;;6.50;99.90;;;;;;5053553;28;20112;-64
2021/05/05 01:47:38;;;;;;;5.47;1.67;;;6.60;99.90;;;;;;5040135;28;20491;-63
2021/05/05 01:50:04;;;;;;;3.72;1.67;;;6.60;99.90;;;;;;5044819;28;20514;-64
2021/05/05 01:52:30;;;;;;;7.80;1.50;;;6.50;99.90;;;;;;5046823;28;20025;-63
2021/05/05 01:54:55;;;;;;;6.32;1.45;;;6.60;99.90;;;;;;5041370;28;20518;-64
2021/05/05 01:57:33;;;;;;;3.75;1.55;;;6.60;99.90;;;;;;5053661;28;20394;-63
2021/05/05 02:00:12;;;;;;;3.40;1.58;;;6.60;99.90;;;;;;5057170;28;20029;-63
2021/05/05 02:02:38;;;;;;;5.20;1.30;;;6.60;99.90;;;;;;5053196;28;20033;-63
2021/05/05 02:05:05;;;;;;;5.32;1.35;;;6.60;99.90;;;;;;5052392;28;20033;-62
2021/05/05 02:07:30;;;;;;;5.35;1.45;;;6.60;99.90;;;;;;5045243;28;20487;-64
2021/05/05 02:09:56;;;;;;;13.50;2.65;;;6.60;99.90;;;;;;5051052;28;20120;-65
2021/05/05 02:12:22;;;;;;;4.40;1.50;;;6.60;99.90;;;;;;5046730;28;20047;-63
2021/05/05 02:14:48;;;;;;;2.78;1.30;;;6.60;99.90;;;;;;5059066;28;20028;-63
2021/05/05 02:17:15;;;;;;;3.85;1.42;;;6.60;99.90;;;;;;5049471;28;20033;-59
2021/05/05 02:19:45;;;;;;;2.85;1.45;;;6.60;99.90;;;;;;5057405;28;20044;-65
2021/05/05 02:22:10;;;;;;;2.60;1.33;;;6.60;99.90;;;;;;5053508;28;20492;-65
2021/05/05 02:24:36;;;;;;;3.58;1.48;;;6.60;99.90;;;;;;5058799;28;20033;-64
2021/05/05 02:27:02;;;;;;;11.32;1.45;;;6.60;99.90;;;;;;5056312;28;20508;-65
2021/05/05 02:29:28;;;;;;;5.05;1.45;;;6.50;99.90;;;;;;5057989;28;20030;-63
2021/05/05 02:31:54;;;;;;;6.22;1.63;;;6.50;99.90;;;;;;5044019;28;20321;-63
2021/05/05 02:34:20;;;;;;;4.95;1.50;;;6.60;99.90;;;;;;5051441;28;20113;-63
2021/05/05 02:36:46;;;;;;;6.45;1.83;;;6.50;99.90;;;;;;5049993;28;20017;-58
2021/05/05 02:39:12;;;;;;;9.05;1.95;;;6.50;99.90;;;;;;5048446;28;20020;-65
2021/05/05 02:41:42;;;;;;;5.78;1.45;;;6.50;99.90;;;;;;5047455;28;20032;-64
2021/05/05 02:44:08;;;;;;;3.40;1.30;;;6.50;99.90;;;;;;5044651;28;20490;-63
2021/05/05 02:46:34;;;;;;;5.03;1.45;;;6.50;99.90;;;;;;5056617;28;20048;-62
2021/05/05 02:49:00;;;;;;;10.40;1.70;;;6.50;99.90;;;;;;5061469;28;20028;-62
2021/05/05 02:51:26;;;;;;;5.65;1.70;;;6.50;99.90;;;;;;5055536;28;20494;-64
2021/05/05 02:53:52;;;;;;;4.50;1.67;;;6.50;99.90;;;;;;5058623;28;20024;-65
2021/05/05 02:56:17;;;;;;;5.38;1.77;;;6.50;99.90;;;;;;5053055;28;20017;-64
2021/05/05 02:58:43;;;;;;;6.57;2.15;;;6.60;99.90;;;;;;5056669;28;20037;-64
2021/05/05 03:01:09;;;;;;;7.13;1.95;;;6.50;99.90;;;;;;5056775;28;20056;-64
2021/05/05 03:03:35;;;;;;;9.98;2.35;;;6.50;99.90;;;;;;5007307;28;20057;-61
2021/05/05 03:06:01;;;;;;;5.25;1.92;;;6.60;99.90;;;;;;5016481;28;20036;-64
2021/05/05 03:08:26;;;;;;;5.88;1.90;;;6.50;99.90;;;;;;5058102;28;20399;-63
2021/05/05 03:10:52;;;;;;;8.48;2.03;;;6.60;99.90;;;;;;5049700;28;20392;-64
2021/05/05 03:13:18;;;;;;;7.68;2.00;;;6.60;99.90;;;;;;5046918;28;20021;-65
2021/05/05 03:15:44;;;;;;;6.28;1.95;;;6.60;99.90;;;;;;5047289;28;20067;-64
2021/05/05 03:18:10;;;;;;;4.97;2.10;;;6.50;99.90;;;;;;5047730;28;20021;-64
2021/05/05 03:20:35;;;;;;;7.28;2.42;;;6.50;99.90;;;;;;5050871;28;20037;-63
2021/05/05 03:23:01;;;;;;;5.70;2.60;;;6.60;99.90;;;;;;5053247;28;20102;-65
2021/05/05 03:25:27;;;;;;;8.02;2.22;;;6.50;99.90;;;;;;5064269;28;20032;-64
2021/05/05 03:27:53;;;;;;;6.05;1.73;;;6.50;99.90;;;;;;5048069;28;20025;-64
2021/05/05 03:30:20;;;;;;;8.68;2.38;;;6.50;99.90;;;;;;5058189;28;20081;-65
2021/05/05 03:32:46;;;;;;;7.60;2.25;;;6.50;99.90;;;;;;5047909;28;20403;-61
2021/05/05 03:35:12;;;;;;;10.93;3.08;;;6.50;99.90;;;;;;5056113;28;20031;-62
2021/05/05 03:37:39;;;;;;;8.60;2.28;;;6.50;99.90;;;;;;5054891;28;20041;-65
2021/05/05 03:40:06;;;;;;;5.03;2.50;;;6.50;99.90;;;;;;5062335;28;20111;-64
2021/05/05 03:42:32;;;;;;;12.98;2.83;;;6.50;99.90;;;;;;5051634;28;20037;-65
2021/05/05 03:44:59;;;;;;;8.95;2.45;;;6.40;99.90;;;;;;5048484;28;20375;-64
2021/05/05 03:47:25;;;;;;;10.25;3.10;;;6.40;99.90;;;;;;5054188;28;20036;-64
2021/05/05 03:49:50;;;;;;;13.57;3.17;;;6.40;99.90;;;;;;5052639;28;20040;-65
2021/05/05 03:52:16;;;;;;;12.68;3.17;;;6.40;99.90;;;;;;5051588;28;20032;-64
2021/05/05 03:54:42;;;;;;;16.48;5.03;;;6.50;99.90;;;;;;5058463;28;20188;-63
2021/05/05 03:57:08;;;;;;;12.30;2.92;;;6.50;99.90;;;;;;5054090;28;20025;-64
2021/05/05 03:59:35;;;;;;;13.73;3.38;;;6.50;99.90;;;;;;5053964;28;20104;-63
2021/05/05 04:02:00;;;;;;;14.25;3.90;;;6.60;99.90;;;;;;5054369;28;20128;-64
2021/05/05 04:04:26;;;;;;;11.95;3.95;;;6.60;99.90;;;;;;5023989;28;20111;-64
2021/05/05 04:06:52;;;;;;;13.60;4.28;;;6.60;99.90;;;;;;5044938;28;20410;-63
2021/05/05 04:09:18;;;;;;;15.02;4.15;;;6.60;99.90;;;;;;5042291;28;20099;-65
2021/05/05 04:11:43;;;;;;;11.27;3.72;;;6.60;99.90;;;;;;5050045;28;20031;-64
2021/05/05 04:14:09;;;;;;;24.33;4.57;;;6.50;99.90;;;;;;5054023;28;20028;-64
2021/05/05 04:16:35;;;;;;;15.93;4.07;;;6.50;99.90;;;;;;5052754;28;20032;-64
2021/05/05 04:19:01;;;;;;;23.15;6.97;;;6.50;99.90;;;;;;5061766;28;20043;-65
2021/05/05 04:21:27;;;;;;;21.67;4.88;;;6.50;99.90;;;;;;5052939;28;20409;-63
2021/05/05 04:23:53;;;;;;;13.90;4.40;;;6.60;99.90;;;;;;5042738;28;20395;-65
2021/05/05 04:26:20;;;;;;;25.48;5.03;;;6.60;99.90;;;;;;5058287;28;20025;-64
2021/05/05 04:28:47;;;;;;;12.40;3.60;;;6.60;99.90;;;;;;5050044;28;20056;-60
2021/05/05 04:31:13;;;;;;;17.98;4.45;;;6.70;99.90;;;;;;5042160;28;20111;-64
2021/05/05 04:33:40;;;;;;;21.77;4.85;;;6.70;99.90;;;;;;5043902;28;20112;-64
2021/05/05 04:36:06;;;;;;;17.92;4.75;;;6.80;99.90;;;;;;5050255;28;20423;-63
2021/05/05 04:38:32;;;;;;;17.42;12.82;;;6.80;99.90;;;;;;5045459;28;20044;-64
2021/05/05 04:40:58;;;;;;;134.32;67.57;;;6.80;99.90;;;;;;5050011;28;20025;-65
2021/05/05 04:43:23;;;;;;;98.40;48.17;;;6.90;99.90;;;;;;5045656;28;20029;-65
2021/05/05 04:45:49;;;;;;;186.20;98.47;;;6.90;99.90;;;;;;5050634;28;20043;-65
2021/05/05 04:48:16;;;;;;;32.55;18.65;;;6.90;99.90;;;;;;5051224;28;20024;-64
2021/05/05 04:50:42;;;;;;;26.75;16.70;;;6.80;99.90;;;;;;5049270;28;20418;-63
2021/05/05 04:53:08;;;;;;;11.68;4.70;;;6.80;99.90;;;;;;5051366;28;20016;-63
2021/05/05 04:55:34;;;;;;;18.65;4.80;;;6.80;99.90;;;;;;5049368;28;20018;-65
2021/05/05 04:58:00;;;;;;;14.90;4.65;;;6.80;99.90;;;;;;5051333;28;20402;-66
2021/05/05 05:00:26;;;;;;;16.23;4.13;;;6.90;99.90;;;;;;5054361;28;20024;-66
2021/05/05 05:02:52;;;;;;;12.13;3.85;;;6.90;99.90;;;;;;5046628;28;20029;-65
2021/05/05 05:05:18;;;;;;;16.90;4.20;;;6.90;99.90;;;;;;5041357;28;20037;-65
2021/05/05 05:07:44;;;;;;;13.95;3.90;;;6.90;99.90;;;;;;5047667;28;20060;-64
2021/05/05 05:10:10;;;;;;;9.45;4.05;;;7.00;99.90;;;;;;5050310;28;20062;-64
2021/05/05 05:12:36;;;;;;;12.43;3.88;;;6.90;99.90;;;;;;5049589;28;20033;-65
2021/05/05 05:15:02;;;;;;;23.35;4.55;;;7.00;99.90;;;;;;5048526;28;20025;-65
2021/05/05 05:17:28;;;;;;;13.93;5.72;;;6.90;99.90;;;;;;5052534;28;20032;-64
2021/05/05 05:19:54;;;;;;;10.82;3.92;;;7.00;99.90;;;;;;5047541;28;20112;-64
2021/05/05 05:22:19;;;;;;;11.93;3.83;;;7.10;99.90;;;;;;5057805;28;20401;-65
2021/05/05 05:24:45;;;;;;;18.25;4.68;;;7.20;99.90;;;;;;5056837;28;20033;-64
2021/05/05 05:27:11;;;;;;;13.50;4.97;;;7.50;99.90;;;;;;5058116;28;20024;-63
2021/05/05 05:29:36;;;;;;;6.55;3.50;;;7.60;99.90;;;;;;5052845;28;20116;-64
2021/05/05 05:32:02;;;;;;;12.18;3.78;;;7.60;99.90;;;;;;5046720;28;20112;-64
2021/05/05 05:34:28;;;;;;;8.80;3.88;;;8.10;99.90;;;;;;5053783;28;20161;-65
2021/05/05 05:36:53;;;;;;;7.10;3.42;;;9.20;99.90;;;;;;5042412;28;20025;-63
2021/05/05 05:39:19;;;;;;;7.88;3.33;;;9.60;99.90;;;;;;5055355;28;20052;-64
2021/05/05 05:41:45;;;;;;;10.65;3.25;;;9.40;99.90;;;;;;5046589;28;20533;-63
2021/05/05 05:44:10;;;;;;;7.50;3.30;;;9.30;99.90;;;;;;5053449;28;20448;-63
2021/05/05 05:46:38;;;;;;;9.43;3.53;;;9.20;99.90;;;;;;5039467;28;20064;-65
2021/05/05 05:49:06;;;;;;;10.23;3.50;;;8.80;99.90;;;;;;5047416;28;20573;-62
2021/05/05 05:51:32;;;;;;;10.88;3.30;;;8.70;99.90;;;;;;5041715;28;20031;-63
2021/05/05 05:53:58;;;;;;;9.05;3.80;;;8.20;99.90;;;;;;5054627;28;20029;-64
2021/05/05 05:56:24;;;;;;;9.10;3.95;;;8.10;99.90;;;;;;5057177;28;20032;-63
2021/05/05 05:58:50;;;;;;;11.18;4.30;;;7.80;99.90;;;;;;5054657;28;20037;-60
2021/05/05 06:01:16;;;;;;;13.07;4.38;;;7.70;99.90;;;;;;5055594;28;20024;-62
2021/05/05 06:03:41;;;;;;;12.48;4.70;;;7.70;99.90;;;;;;5056450;28;20043;-64
2021/05/05 06:06:07;;;;;;;12.88;3.92;;;7.80;99.90;;;;;;5040324;28;20048;-64
2021/05/05 06:08:33;;;;;;;6.70;3.63;;;7.70;99.90;;;;;;5054901;28;20043;-63
2021/05/05 06:10:59;;;;;;;10.40;3.65;;;8.00;99.90;;;;;;5060399;28;20024;-65
2021/05/05 06:13:26;;;;;;;11.60;3.70;;;8.80;99.90;;;;;;5056791;28;20032;-64
2021/05/05 06:15:51;;;;;;;5.60;3.05;;;8.70;99.90;;;;;;5057451;28;20021;-64
2021/05/05 06:18:17;;;;;;;12.73;5.15;;;8.20;99.90;;;;;;5052312;28;20023;-61
2021/05/05 06:20:43;;;;;;;9.45;4.00;;;7.80;99.90;;;;;;5051683;28;20067;-63
2021/05/05 06:23:09;;;;;;;5.57;2.70;;;7.30;99.90;;;;;;5049723;28;20056;-64
2021/05/05 06:25:34;;;;;;;10.98;4.03;;;7.00;99.90;;;;;;5057570;28;20052;-62
2021/05/05 06:28:00;;;;;;;7.53;4.45;;;6.60;99.90;;;;;;5054703;28;20040;-64
2021/05/05 06:30:26;;;;;;;14.55;5.13;;;6.30;99.90;;;;;;5062067;28;20035;-64
2021/05/05 06:32:52;;;;;;;10.85;5.30;;;6.10;99.90;;;;;;5048413;28;20021;-61
2021/05/05 06:35:18;;;;;;;12.10;5.97;;;6.00;99.90;;;;;;5044328;28;20021;-64
2021/05/05 06:37:44;;;;;;;19.70;5.22;;;5.90;99.90;;;;;;5044447;28;20025;-64
2021/05/05 06:40:11;;;;;;;187.77;64.68;;;5.90;99.90;;;;;;5053679;28;20051;-65
2021/05/05 06:42:37;;;;;;;19.25;8.05;;;6.00;99.90;;;;;;5055796;28;20110;-64
2021/05/05 06:45:04;;;;;;;46.72;17.08;;;5.90;99.90;;;;;;5055418;28;20479;-64
2021/05/05 06:47:30;;;;;;;109.03;45.63;;;5.90;99.90;;;;;;5063245;28;20410;-64
2021/05/05 06:49:56;;;;;;;63.92;30.67;;;6.00;99.90;;;;;;5044498;28;20026;-64
2021/05/05 06:52:22;;;;;;;29.45;11.50;;;6.20;99.90;;;;;;5048289;28;20028;-64
2021/05/05 06:54:48;;;;;;;15.80;7.63;;;6.40;99.90;;;;;;5046091;28;20048;-61
2021/05/05 06:57:13;;;;;;;24.73;11.38;;;6.50;99.90;;;;;;5048228;28;20097;-64
2021/05/05 06:59:39;;;;;;;9.55;6.55;;;6.90;99.90;;;;;;5041740;28;20376;-64
2021/05/05 07:02:04;;;;;;;15.35;6.75;;;7.00;99.90;;;;;;5053908;28;20036;-63
2021/05/05 07:04:30;;;;;;;11.50;5.60;;;7.30;99.90;;;;;;5058591;28;20106;-63
2021/05/05 07:06:56;;;;;;;10.60;4.93;;;8.30;99.90;;;;;;5024737;28;20084;-63
2021/05/05 07:09:22;;;;;;;8.60;4.07;;;9.20;99.90;;;;;;5057368;28;20060;-63
2021/05/05 07:11:51;;;;;;;11.27;5.00;;;8.60;99.90;;;;;;5053621;28;20036;-63
2021/05/05 07:14:17;;;;;;;14.73;4.80;;;8.60;99.90;;;;;;5048289;28;20052;-63
2021/05/05 07:16:43;;;;;;;8.13;4.22;;;8.60;99.90;;;;;;5050360;28;20030;-64
2021/05/05 07:19:09;;;;;;;12.52;5.03;;;8.50;99.90;;;;;;5067204;28;20342;-63
2021/05/05 07:21:35;;;;;;;9.75;4.20;;;8.80;99.90;;;;;;5057584;28;20583;-63
2021/05/05 07:24:01;;;;;;;11.75;4.03;;;8.70;99.90;;;;;;5062610;28;20058;-64
2021/05/05 07:26:27;;;;;;;12.95;3.78;;;8.00;99.90;;;;;;5061808;28;20035;-63
2021/05/05 07:28:54;;;;;;;8.73;3.22;;;7.80;99.90;;;;;;5055240;28;20041;-63
2021/05/05 07:31:20;;;;;;;4.93;3.25;;;7.70;99.90;;;;;;5046971;28;20029;-63
2021/05/05 07:33:49;;;;;;;7.70;3.88;;;7.50;99.90;;;;;;5051107;28;20032;-63
2021/05/05 07:36:18;;;;;;;10.27;5.50;;;7.00;99.90;;;;;;5049244;28;20037;-62
2021/05/05 07:46:58;;;;;;;;;;;5.70;99.90;;;;;;5049696;28;20046;-62
2021/05/05 07:49:25;;;;;;;12.95;6.75;;;5.70;99.90;;;;;;5046376;28;20278;-63
2021/05/05 07:51:52;;;;;;;6.95;3.67;;;6.00;99.90;;;;;;5043969;28;20016;-63
2021/05/05 07:54:19;;;;;;;8.30;4.65;;;6.30;99.90;;;;;;5052221;28;20019;-63
2021/05/05 07:56:45;;;;;;;12.13;4.32;;;6.60;99.90;;;;;;5049067;28;20110;-64
2021/05/05 07:59:12;;;;;;;12.82;5.93;;;7.70;99.90;;;;;;5048702;28;20021;-65
2021/05/05 08:01:38;;;;;;;7.65;4.50;;;8.80;99.90;;;;;;5049092;28;20064;-64
2021/05/05 08:04:06;;;;;;;14.30;7.53;;;10.00;99.90;;;;;;5050850;28;20021;-64
2021/05/05 08:06:32;;;;;;;6.80;3.63;;;11.50;99.90;;;;;;5025086;28;20040;-62
2021/05/05 08:08:58;;;;;;;26.02;12.10;;;11.70;99.90;;;;;;5057616;28;20021;-64
2021/05/05 08:11:24;;;;;;;10.38;4.72;;;11.00;99.90;;;;;;5052681;28;20136;-64
2021/05/05 08:13:51;;;;;;;10.45;5.13;;;11.30;99.90;;;;;;5058044;28;20396;-64
2021/05/05 08:16:18;;;;;;;18.27;6.88;;;11.30;99.90;;;;;;5047243;28;20047;-65
2021/05/05 08:18:44;;;;;;;16.48;8.20;;;10.40;99.90;;;;;;5048027;28;20028;-64
2021/05/05 08:21:11;;;;;;;17.17;7.38;;;10.10;99.90;;;;;;5058778;28;20028;-64
2021/05/05 08:23:38;;;;;;;13.27;6.00;;;9.90;99.90;;;;;;5055720;28;20394;-64
2021/05/05 08:26:05;;;;;;;9.07;4.63;;;9.40;99.90;;;;;;5057041;28;20028;-64
2021/05/05 08:28:32;;;;;;;9.48;5.70;;;9.00;99.90;;;;;;5041010;28;20052;-63
2021/05/05 08:30:58;;;;;;;12.68;4.50;;;8.90;99.90;;;;;;5045842;28;20029;-63
2021/05/05 08:33:24;;;;;;;6.22;3.50;;;8.90;99.90;;;;;;5042945;28;20483;-63
2021/05/05 08:35:50;;;;;;;6.38;3.42;;;9.00;99.90;;;;;;5052030;28;20505;-62
2021/05/05 08:38:16;;;;;;;5.80;3.17;;;8.70;99.90;;;;;;5046615;28;20028;-62
2021/05/05 08:40:42;;;;;;;8.20;4.13;;;8.50;99.90;;;;;;5053261;28;20383;-63
2021/05/05 08:43:08;;;;;;;8.10;3.65;;;8.30;99.90;;;;;;5039755;28;20127;-62
2021/05/05 08:45:35;;;;;;;6.70;3.95;;;8.30;99.90;;;;;;5037523;28;20025;-63
2021/05/05 08:48:06;;;;;;;2.95;1.70;;;8.20;99.90;;;;;;5047442;28;20033;-62
2021/05/05 08:50:33;;;;;;;3.90;1.48;;;7.90;99.90;;;;;;5044480;28;20107;-63
2021/05/05 08:52:59;;;;;;;3.53;1.80;;;7.20;99.90;;;;;;5056762;28;20020;-63
2021/05/05 08:55:27;;;;;;;3.95;2.45;;;6.50;99.90;;;;;;5038905;28;20040;-62
2021/05/05 08:57:52;;;;;;;3.70;2.47;;;6.10;99.90;;;;;;5058180;28;20078;-62
2021/05/05 09:00:37;;;;;;;5.70;2.60;;;5.60;99.90;;;;;;5049297;28;20028;-63
2021/05/05 09:03:08;;;;;;;5.10;2.90;;;5.60;99.90;;;;;;5048514;28;20098;-63
2021/05/05 09:05:52;;;;;;;4.70;2.78;;;5.60;99.90;;;;;;5049488;28;20218;-63
2021/05/05 09:08:18;;;;;;;4.88;3.45;;;5.50;99.90;;;;;;5038547;28;20067;-62
2021/05/05 09:10:57;;;;;;;4.22;3.38;;;5.60;99.90;;;;;;5042467;28;20072;-62
2021/05/05 09:13:56;;;;;;;4.88;3.33;;;5.70;99.90;;;;;;5046449;28;20028;-64
2021/05/05 09:16:30;;;;;;;7.72;3.53;;;5.80;99.90;;;;;;5052724;28;20037;-63
2021/05/05 09:18:59;;;;;;;5.32;4.22;;;5.80;99.90;;;;;;5051911;28;20494;-62
2021/05/05 09:21:37;;;;;;;5.32;3.63;;;6.00;99.90;;;;;;5047500;28;20156;-63
2021/05/05 09:24:19;;;;;;;7.03;3.88;;;6.20;99.90;;;;;;5063653;28;20028;-63
2021/05/05 09:26:50;;;;;;;6.97;3.00;;;6.50;99.90;;;;;;5044065;28;20410;-64
2021/05/05 09:29:17;;;;;;;6.65;3.30;;;6.60;99.90;;;;;;5045502;28;20495;-62
2021/05/05 09:31:44;;;;;;;4.88;2.92;;;6.80;99.90;;;;;;5043365;28;20110;-63
2021/05/05 09:34:11;;;;;;;6.88;3.30;;;7.10;99.90;;;;;;5057652;28;20095;-62
2021/05/05 09:36:58;;;;;;;7.32;3.13;;;7.50;99.90;;;;;;5046852;28;20025;-62
2021/05/05 09:39:33;;;;;;;4.85;2.28;;;8.40;99.90;;;;;;5039812;28;20025;-63
2021/05/05 09:42:00;;;;;;;6.90;3.38;;;9.10;99.90;;;;;;5054901;28;20028;-64
2021/05/05 09:44:26;;;;;;;4.07;2.40;;;9.60;99.90;;;;;;5041047;28;20499;-63
2021/05/05 09:46:57;;;;;;;3.75;1.90;;;9.70;99.90;;;;;;5043574;28;20055;-64
2021/05/05 09:49:37;;;;;;;6.82;2.50;;;9.90;99.90;;;;;;5055477;28;20059;-64
2021/05/05 09:52:06;;;;;;;4.78;1.88;;;9.80;99.90;;;;;;5058129;28;20078;-64
2021/05/05 09:54:37;;;;;;;7.45;2.33;;;10.10;99.90;;;;;;5058585;28;20025;-63
2021/05/05 09:57:17;;;;;;;6.80;2.38;;;9.70;99.90;;;;;;5060090;28;20501;-64
2021/05/05 10:00:14;;;;;;;6.50;2.67;;;9.20;99.90;;;;;;5055618;28;20036;-63
2021/05/05 10:02:49;;;;;;;4.55;2.10;;;9.20;99.90;;;;;;5076445;28;20123;-63
2021/05/05 10:05:17;;;;;;;8.30;2.25;;;9.60;99.90;;;;;;5051666;28;20057;-62
2021/05/05 10:08:04;;;;;;;4.90;2.20;;;9.80;99.90;;;;;;5052366;28;20070;-64
2021/05/05 10:10:32;;;;;;;9.70;2.47;;;10.20;99.90;;;;;;5060406;28;20112;-64
2021/05/05 10:13:00;;;;;;;4.75;1.67;;;10.10;99.90;;;;;;5056582;28;20031;-64
2021/05/05 10:15:27;;;;;;;5.82;2.35;;;9.80;99.90;;;;;;5053032;28;20085;-63
2021/05/05 10:17:53;;;;;;;10.02;2.45;;;9.10;99.90;;;;;;5035933;28;20024;-63
2021/05/05 10:20:24;;;;;;;6.78;2.50;;;8.90;99.90;;;;;;5047856;28;20039;-63
2021/05/05 10:22:56;;;;;;;5.88;2.40;;;8.50;99.90;;;;;;5040147;28;20029;-63
2021/05/05 10:25:22;;;;;;;8.48;3.30;;;8.60;99.90;;;;;;5044677;28;20067;-64
2021/05/05 10:27:49;;;;;;;4.60;2.08;;;8.90;99.90;;;;;;5058044;28;20060;-64
2021/05/05 10:30:18;;;;;;;6.15;2.13;;;9.00;99.90;;;;;;5062803;28;20031;-64
2021/05/05 10:32:45;;;;;;;7.63;2.45;;;9.30;99.90;;;;;;5059529;28;20020;-64
2021/05/05 10:35:15;;;;;;;9.48;2.30;;;10.00;99.90;;;;;;5047372;28;20025;-64
2021/05/05 10:37:49;;;;;;;7.90;2.47;;;10.50;99.90;;;;;;5046367;28;20091;-66
2021/05/05 10:40:19;;;;;;;6.85;2.42;;;10.90;99.90;;;;;;5058883;28;20130;-65
2021/05/05 10:42:53;;;;;;;5.30;1.90;;;10.70;99.90;;;;;;5048104;28;21251;-64
2021/05/05 10:45:33;;;;;;;5.30;2.40;;;10.90;99.90;;;;;;5052931;28;20029;-64
2021/05/05 10:48:15;;;;;;;7.38;2.50;;;11.00;99.90;;;;;;5059235;28;20111;-63
2021/05/05 10:51:01;;;;;;;6.25;2.17;;;11.00;99.90;;;;;;5062205;28;20559;-64
2021/05/05 10:53:38;;;;;;;7.65;2.42;;;11.10;99.90;;;;;;5059374;28;20041;-63
2021/05/05 10:56:24;;;;;;;6.40;1.90;;;11.10;99.90;;;;;;5048624;28;20128;-64
2021/05/05 10:58:59;;;;;;;7.70;2.10;;;11.30;99.90;;;;;;5041881;28;20044;-65
2021/05/05 11:01:47;;;;;;;7.85;2.00;;;11.30;99.90;;;;;;5052715;28;20173;-64
2021/05/05 11:04:16;;;;;;;5.80;1.90;;;11.50;99.60;;;;;;5039078;28;20024;-64
2021/05/05 11:06:46;;;;;;;5.53;1.52;;;11.30;98.80;;;;;;5047164;28;20043;-65
2021/05/05 11:09:12;;;;;;;6.47;2.47;;;11.00;98.70;;;;;;5056663;28;20025;-65
2021/05/05 11:11:41;;;;;;;2.65;1.88;;;10.70;99.10;;;;;;5051779;28;20417;-65
2021/05/05 11:14:08;;;;;;;7.55;2.15;;;10.60;98.90;;;;;;5051896;28;20107;-63
2021/05/05 11:16:52;;;;;;;6.47;1.73;;;10.40;99.40;;;;;;5051596;28;20508;-64
2021/05/05 11:22:07;;;;;;;5.65;1.55;;;10.90;98.80;;;;;;5050918;28;20514;-64
2021/05/05 11:24:37;;;;;;;7.65;1.83;;;11.20;98.50;;;;;;5059414;28;20045;-64
2021/05/05 11:27:06;;;;;;;4.53;1.80;;;11.50;97.80;;;;;;5050365;28;20025;-64
2021/05/05 11:29:37;;;;;;;6.07;1.77;;;11.80;97.70;;;;;;5057885;28;20550;-65
2021/05/05 11:32:03;;;;;;;9.00;1.85;;;11.60;97.30;;;;;;5056811;28;20039;-63
2021/05/05 11:34:30;;;;;;;8.73;2.70;;;11.50;99.00;;;;;;5060631;28;20021;-64
2021/05/05 11:37:12;;;;;;;9.15;2.58;;;11.70;98.70;;;;;;5049861;28;20025;-63
2021/05/05 11:39:41;;;;;;;5.90;2.08;;;11.50;99.40;;;;;;5054994;28;20021;-63
2021/05/05 11:42:13;;;;;;;6.93;2.00;;;11.30;99.60;;;;;;5042160;28;20040;-64
2021/05/05 11:44:41;;;;;;;9.77;1.90;;;11.70;99.50;;;;;;5038358;28;20025;-62
2021/05/05 11:47:12;;;;;;;6.60;1.90;;;11.30;98.20;;;;;;5044159;28;20028;-62
2021/05/05 11:49:41;;;;;;;6.65;1.60;;;11.80;99.50;;;;;;5039029;28;20044;-63
2021/05/05 11:52:18;;;;;;;5.53;1.98;;;11.90;97.30;;;;;;5044621;28;20036;-63
2021/05/05 11:54:43;;;;;;;7.50;2.38;;;11.70;97.80;;;;;;5059925;28;20020;-63
2021/05/05 11:57:09;;;;;;;4.45;1.70;;;11.70;99.10;;;;;;5056367;28;20027;-64
2021/05/05 11:59:35;;;;;;;10.32;1.83;;;11.40;97.70;;;;;;5042305;28;20781;-64
2021/05/05 12:02:05;;;;;;;6.60;1.63;;;11.10;97.50;;;;;;5039542;28;20033;-63
2021/05/05 12:04:38;;;;;;;9.98;1.73;;;11.00;97.30;;;;;;5037883;28;20033;-64
2021/05/05 12:07:06;;;;;;;6.63;1.65;;;11.10;97.70;;;;;;5049700;28;20033;-62
2021/05/05 12:09:37;;;;;;;7.50;2.03;;;11.20;96.40;;;;;;5056043;28;20086;-63
2021/05/05 12:12:08;;;;;;;6.72;2.42;;;11.60;96.90;;;;;;5049133;28;20021;-64
2021/05/05 12:14:35;;;;;;;7.00;2.58;;;12.10;97.00;;;;;;5041806;28;20148;-64
2021/05/05 12:17:29;;;;;;;8.82;2.20;;;12.20;96.30;;;;;;5052047;28;20107;-64
2021/05/05 12:20:05;;;;;;;8.10;2.08;;;12.30;96.80;;;;;;5038727;28;20043;-64
2021/05/05 12:22:33;;;;;;;6.38;1.98;;;12.20;97.10;;;;;;5047239;28;20154;-64
2021/05/05 12:25:07;;;;;;;3.88;1.92;;;12.10;96.50;;;;;;5045652;28;20449;-64
2021/05/05 12:27:32;;;;;;;6.57;2.58;;;12.20;97.20;;;;;;5048069;28;20552;-64
2021/05/05 12:30:04;;;;;;;6.90;2.22;;;12.50;96.10;;;;;;5039837;28;20041;-64
2021/05/05 12:32:47;;;;;;;8.02;2.13;;;12.50;95.50;;;;;;5039941;28;20062;-63
2021/05/05 12:35:21;;;;;;;6.45;1.98;;;12.40;95.90;;;;;;5043297;28;20040;-63
2021/05/05 12:37:47;;;;;;;10.73;1.92;;;12.50;94.90;;;;;;5046187;28;20024;-63
2021/05/05 12:40:13;;;;;;;5.80;2.20;;;12.40;96.10;;;;;;5055774;28;20025;-63
2021/05/05 12:42:39;;;;;;;11.68;2.88;;;12.00;98.40;;;;;;5058669;28;20512;-63
2021/05/05 12:45:10;;;;;;;6.90;2.55;;;11.20;99.90;;;;;;5060076;28;20059;-63
2021/05/05 12:47:37;;;;;;;8.13;2.47;;;10.90;99.90;;;;;;5061669;28;20021;-63
2021/05/05 12:50:04;;;;;;;7.28;2.80;;;10.70;99.90;;;;;;5054063;28;20033;-63
2021/05/05 12:52:32;;;;;;;11.00;2.80;;;10.60;99.90;;;;;;5058939;28;20083;-65
2021/05/05 12:55:20;;;;;;;4.53;2.47;;;10.70;99.90;;;;;;5062314;28;20103;-63
2021/05/05 12:58:00;;;;;;;7.72;2.65;;;10.60;99.90;;;;;;5030028;28;20049;-63
2021/05/05 13:00:26;;;;;;;10.63;3.13;;;10.30;99.90;;;;;;5056097;28;20125;-63
2021/05/05 13:03:05;;;;;;;8.88;2.70;;;9.90;99.90;;;;;;5055016;28;20039;-61
2021/05/05 13:05:32;;;;;;;6.53;2.70;;;10.00;99.90;;;;;;5055349;28;20540;-63